sensor_id;sensor_type;location;lat;lon;timestamp;P1;durP1;ratioP1;P2;durP2;ratioP2
1753;SDS011;58380;48.312;9.246;2023-04-06T05:50:08;16.48;;;7.03;;
1753;SDS011;58380;48.312;9.246;2023-04-06T05:52:34;23.02;;;8.35;;
1753;SDS011;58380;48.312;9.246;2023-04-06T05:54:59;19.10;;;8.57;;
1753;SDS011;58380;48.312;9.246;2023-04-06T05:57:25;17.20;;;8.50;;
1753;SDS011;58380;48.312;9.246;2023-04-06T05:59:51;16.67;;;8.57;;
1753;SDS011;58380;48.312;9.246;2023-04-06T06:02:16;19.50;;;8.90;;
1753;SDS011;58380;48.312;9.246;2023-04-06T06:04:41;16.87;;;9.47;;
1753;SDS011;58380;48.312;9.246;2023-04-06T06:07:08;16.27;;;8.90;;
1753;SDS011;58380;48.312;9.246;2023-04-06T06:09:33;19.90;;;9.43;;
1753;SDS011;58380;48.312;9.246;2023-04-06T06:11:59;19.50;;;9.13;;
1753;SDS011;58380;48.312;9.246;2023-04-06T06:14:25;35.30;;;15.20;;
1753;SDS011;58380;48.312;9.246;2023-04-06T06:16:53;73.55;;;29.55;;
1753;SDS011;58380;48.312;9.246;2023-04-06T06:19:19;64.28;;;28.20;;
1753;SDS011;58380;48.312;9.246;2023-04-06T06:21:44;66.32;;;28.52;;
1753;SDS011;58380;48.312;9.246;2023-04-06T06:24:10;60.77;;;26.77;;
1753;SDS011;58380;48.312;9.246;2023-04-06T06:26:36;41.40;;;19.50;;
1753;SDS011;58380;48.312;9.246;2023-04-06T06:29:03;45.50;;;22.08;;
1753;SDS011;58380;48.312;9.246;2023-04-06T06:31:30;42.25;;;19.17;;
1753;SDS011;58380;48.312;9.246;2023-04-06T06:33:55;32.15;;;17.02;;
1753;SDS011;58380;48.312;9.246;2023-04-06T06:36:21;42.83;;;18.73;;
1753;SDS011;58380;48.312;9.246;2023-04-06T06:38:46;37.23;;;18.67;;
1753;SDS011;58380;48.312;9.246;2023-04-06T06:41:12;40.23;;;20.40;;
1753;SDS011;58380;48.312;9.246;2023-04-06T06:43:37;40.20;;;19.93;;
1753;SDS011;58380;48.312;9.246;2023-04-06T06:46:03;33.65;;;15.57;;
1753;SDS011;58380;48.312;9.246;2023-04-06T06:50:55;26.48;;;15.02;;
1753;SDS011;58380;48.312;9.246;2023-04-06T06:53:21;32.88;;;16.52;;
1753;SDS011;58380;48.312;9.246;2023-04-06T06:55:49;32.42;;;16.77;;
1753;SDS011;58380;48.312;9.246;2023-04-06T06:58:14;31.90;;;15.95;;
1753;SDS011;58380;48.312;9.246;2023-04-06T07:00:42;32.28;;;15.18;;
1753;SDS011;58380;48.312;9.246;2023-04-06T07:03:08;25.10;;;12.87;;
1753;SDS011;58380;48.312;9.246;2023-04-06T07:05:33;23.97;;;11.97;;
1753;SDS011;58380;48.312;9.246;2023-04-06T07:07:59;21.63;;;11.33;;
1753;SDS011;58380;48.312;9.246;2023-04-06T07:10:24;23.43;;;11.37;;
1753;SDS011;58380;48.312;9.246;2023-04-06T07:15:16;20.45;;;12.23;;
1753;SDS011;58380;48.312;9.246;2023-04-06T07:17:42;25.75;;;12.60;;
1753;SDS011;58380;48.312;9.246;2023-04-06T07:20:10;19.60;;;11.45;;
1753;SDS011;58380;48.312;9.246;2023-04-06T07:25:03;25.90;;;12.23;;
1753;SDS011;58380;48.312;9.246;2023-04-06T07:27:29;26.33;;;12.18;;
1753;SDS011;58380;48.312;9.246;2023-04-06T07:29:54;24.70;;;11.90;;
1753;SDS011;58380;48.312;9.246;2023-04-06T07:32:20;23.37;;;11.40;;
1753;SDS011;58380;48.312;9.246;2023-04-06T07:34:45;24.60;;;12.17;;
1753;SDS011;58380;48.312;9.246;2023-04-06T07:37:11;20.77;;;11.07;;
1753;SDS011;58380;48.312;9.246;2023-04-06T07:39:37;22.92;;;10.27;;
1753;SDS011;58380;48.312;9.246;2023-04-06T07:42:02;17.10;;;9.00;;
1753;SDS011;58380;48.312;9.246;2023-04-06T07:44:28;16.73;;;8.77;;
1753;SDS011;58380;48.312;9.246;2023-04-06T07:46:54;18.37;;;9.63;;
1753;SDS011;58380;48.312;9.246;2023-04-06T07:49:19;19.65;;;9.68;;
1753;SDS011;58380;48.312;9.246;2023-04-06T07:51:46;13.98;;;7.65;;
1753;SDS011;58380;48.312;9.246;2023-04-06T07:54:11;13.88;;;7.05;;
1753;SDS011;58380;48.312;9.246;2023-04-06T07:56:38;9.80;;;5.67;;
1753;SDS011;58380;48.312;9.246;2023-04-06T07:59:03;13.32;;;6.68;;
1753;SDS011;58380;48.312;9.246;2023-04-06T08:01:29;10.73;;;5.80;;
1753;SDS011;58380;48.312;9.246;2023-04-06T08:03:55;7.68;;;4.50;;
1753;SDS011;58380;48.312;9.246;2023-04-06T08:06:23;8.70;;;4.60;;
1753;SDS011;58380;48.312;9.246;2023-04-06T08:08:49;9.30;;;4.45;;
1753;SDS011;58380;48.312;9.246;2023-04-06T08:11:14;8.37;;;4.50;;
1753;SDS011;58380;48.312;9.246;2023-04-06T08:13:40;8.48;;;4.45;;
1753;SDS011;58380;48.312;9.246;2023-04-06T08:16:06;9.37;;;4.23;;
1753;SDS011;58380;48.312;9.246;2023-04-06T08:18:31;6.93;;;3.83;;
1753;SDS011;58380;48.312;9.246;2023-04-06T08:20:59;7.32;;;4.10;;
1753;SDS011;58380;48.312;9.246;2023-04-06T08:23:28;9.07;;;4.30;;
1753;SDS011;58380;48.312;9.246;2023-04-06T08:25:54;8.25;;;4.40;;
1753;SDS011;58380;48.312;9.246;2023-04-06T08:28:22;7.35;;;3.88;;
1753;SDS011;58380;48.312;9.246;2023-04-06T08:30:48;7.63;;;4.13;;
1753;SDS011;58380;48.312;9.246;2023-04-06T08:33:14;7.90;;;4.07;;
1753;SDS011;58380;48.312;9.246;2023-04-06T08:35:40;6.97;;;3.67;;
1753;SDS011;58380;48.312;9.246;2023-04-06T08:41:18;8.35;;;3.58;;
1753;SDS011;58380;48.312;9.246;2023-04-06T08:43:49;7.60;;;3.42;;
1753;SDS011;58380;48.312;9.246;2023-04-06T08:46:25;9.05;;;3.92;;
1753;SDS011;58380;48.312;9.246;2023-04-06T08:49:00;7.15;;;3.72;;
1753;SDS011;58380;48.312;9.246;2023-04-06T08:51:35;10.13;;;4.15;;
1753;SDS011;58380;48.312;9.246;2023-04-06T08:54:10;8.25;;;3.33;;
1753;SDS011;58380;48.312;9.246;2023-04-06T08:57:18;9.57;;;3.92;;
1753;SDS011;58380;48.312;9.246;2023-04-06T09:03:25;7.10;;;3.33;;
1753;SDS011;58380;48.312;9.246;2023-04-06T09:06:01;7.20;;;3.75;;
1753;SDS011;58380;48.312;9.246;2023-04-06T09:08:29;5.95;;;3.05;;
1753;SDS011;58380;48.312;9.246;2023-04-06T09:10:54;6.68;;;2.78;;
1753;SDS011;58380;48.312;9.246;2023-04-06T09:13:43;6.43;;;3.22;;
1753;SDS011;58380;48.312;9.246;2023-04-06T09:16:16;5.75;;;3.10;;
1753;SDS011;58380;48.312;9.246;2023-04-06T09:18:46;7.53;;;3.13;;
1753;SDS011;58380;48.312;9.246;2023-04-06T09:21:18;5.82;;;3.22;;
1753;SDS011;58380;48.312;9.246;2023-04-06T09:24:00;6.05;;;2.83;;
1753;SDS011;58380;48.312;9.246;2023-04-06T09:26:30;6.25;;;2.95;;
1753;SDS011;58380;48.312;9.246;2023-04-06T09:29:23;5.90;;;2.88;;
1753;SDS011;58380;48.312;9.246;2023-04-06T09:31:52;5.22;;;2.75;;
1753;SDS011;58380;48.312;9.246;2023-04-06T09:34:28;5.07;;;2.80;;
1753;SDS011;58380;48.312;9.246;2023-04-06T09:36:54;5.18;;;3.00;;
1753;SDS011;58380;48.312;9.246;2023-04-06T09:39:27;5.93;;;2.90;;
1753;SDS011;58380;48.312;9.246;2023-04-06T09:41:58;8.40;;;3.55;;
1753;SDS011;58380;48.312;9.246;2023-04-06T09:44:23;9.02;;;3.45;;
1753;SDS011;58380;48.312;9.246;2023-04-06T09:47:06;5.78;;;3.15;;
1753;SDS011;58380;48.312;9.246;2023-04-06T09:49:37;5.28;;;2.80;;
1753;SDS011;58380;48.312;9.246;2023-04-06T09:52:06;6.80;;;3.20;;
1753;SDS011;58380;48.312;9.246;2023-04-06T09:54:35;6.75;;;3.30;;
1753;SDS011;58380;48.312;9.246;2023-04-06T09:57:21;4.90;;;2.90;;
1753;SDS011;58380;48.312;9.246;2023-04-06T10:00:11;6.10;;;3.08;;
1753;SDS011;58380;48.312;9.246;2023-04-06T10:02:56;5.18;;;3.15;;
1753;SDS011;58380;48.312;9.246;2023-04-06T10:05:41;5.20;;;2.88;;
1753;SDS011;58380;48.312;9.246;2023-04-06T10:08:14;7.25;;;3.25;;
1753;SDS011;58380;48.312;9.246;2023-04-06T10:10:41;5.38;;;2.92;;
1753;SDS011;58380;48.312;9.246;2023-04-06T10:13:10;7.55;;;2.92;;
1753;SDS011;58380;48.312;9.246;2023-04-06T10:15:38;5.38;;;2.90;;
1753;SDS011;58380;48.312;9.246;2023-04-06T10:18:07;7.00;;;3.13;;
1753;SDS011;58380;48.312;9.246;2023-04-06T10:20:46;5.30;;;2.63;;
1753;SDS011;58380;48.312;9.246;2023-04-06T10:23:35;5.70;;;2.80;;
1753;SDS011;58380;48.312;9.246;2023-04-06T10:26:03;7.82;;;2.63;;
1753;SDS011;58380;48.312;9.246;2023-04-06T10:28:33;5.43;;;3.08;;
1753;SDS011;58380;48.312;9.246;2023-04-06T10:31:06;6.78;;;3.08;;
1753;SDS011;58380;48.312;9.246;2023-04-06T10:33:32;5.10;;;2.55;;
1753;SDS011;58380;48.312;9.246;2023-04-06T10:36:50;7.20;;;3.40;;
1753;SDS011;58380;48.312;9.246;2023-04-06T10:39:27;7.85;;;3.08;;
1753;SDS011;58380;48.312;9.246;2023-04-06T10:44:30;6.07;;;3.15;;
1753;SDS011;58380;48.312;9.246;2023-04-06T10:47:15;5.32;;;3.00;;
1753;SDS011;58380;48.312;9.246;2023-04-06T10:49:46;7.75;;;3.00;;
1753;SDS011;58380;48.312;9.246;2023-04-06T10:52:23;4.78;;;3.08;;
1753;SDS011;58380;48.312;9.246;2023-04-06T10:54:51;8.75;;;3.50;;
1753;SDS011;58380;48.312;9.246;2023-04-06T10:57:27;5.30;;;3.60;;
1753;SDS011;58380;48.312;9.246;2023-04-06T10:59:54;8.27;;;3.60;;
1753;SDS011;58380;48.312;9.246;2023-04-06T11:02:22;8.45;;;3.95;;
1753;SDS011;58380;48.312;9.246;2023-04-06T11:04:58;7.45;;;4.22;;
1753;SDS011;58380;48.312;9.246;2023-04-06T11:07:27;6.35;;;3.92;;
1753;SDS011;58380;48.312;9.246;2023-04-06T11:09:55;8.70;;;4.00;;
1753;SDS011;58380;48.312;9.246;2023-04-06T11:12:24;7.80;;;3.67;;
1753;SDS011;58380;48.312;9.246;2023-04-06T11:14:56;11.00;;;3.38;;
1753;SDS011;58380;48.312;9.246;2023-04-06T11:17:30;6.97;;;3.83;;
1753;SDS011;58380;48.312;9.246;2023-04-06T11:19:58;6.95;;;3.67;;
1753;SDS011;58380;48.312;9.246;2023-04-06T11:22:25;6.78;;;3.85;;
1753;SDS011;58380;48.312;9.246;2023-04-06T11:27:20;5.90;;;3.20;;
1753;SDS011;58380;48.312;9.246;2023-04-06T11:29:46;6.68;;;3.47;;
1753;SDS011;58380;48.312;9.246;2023-04-06T11:32:19;7.15;;;3.30;;
1753;SDS011;58380;48.312;9.246;2023-04-06T11:34:46;8.63;;;3.88;;
1753;SDS011;58380;48.312;9.246;2023-04-06T11:37:13;5.85;;;3.20;;
1753;SDS011;58380;48.312;9.246;2023-04-06T11:39:43;8.55;;;4.68;;
1753;SDS011;58380;48.312;9.246;2023-04-06T11:44:58;5.68;;;3.53;;
1753;SDS011;58380;48.312;9.246;2023-04-06T11:47:29;8.00;;;3.10;;
1753;SDS011;58380;48.312;9.246;2023-04-06T11:50:05;5.78;;;2.75;;
1753;SDS011;58380;48.312;9.246;2023-04-06T11:52:35;5.22;;;3.25;;
1753;SDS011;58380;48.312;9.246;2023-04-06T11:55:14;10.38;;;3.28;;
1753;SDS011;58380;48.312;9.246;2023-04-06T11:57:44;6.00;;;3.42;;
1753;SDS011;58380;48.312;9.246;2023-04-06T12:00:11;7.10;;;3.63;;
1753;SDS011;58380;48.312;9.246;2023-04-06T12:02:37;6.53;;;3.78;;
1753;SDS011;58380;48.312;9.246;2023-04-06T12:05:07;7.43;;;3.80;;
1753;SDS011;58380;48.312;9.246;2023-04-06T12:07:35;5.90;;;3.20;;
1753;SDS011;58380;48.312;9.246;2023-04-06T12:10:07;7.00;;;3.65;;
1753;SDS011;58380;48.312;9.246;2023-04-06T12:12:33;7.43;;;3.75;;
1753;SDS011;58380;48.312;9.246;2023-04-06T12:14:58;6.85;;;3.30;;
1753;SDS011;58380;48.312;9.246;2023-04-06T12:17:24;6.80;;;3.60;;
1753;SDS011;58380;48.312;9.246;2023-04-06T12:19:56;10.15;;;3.60;;
1753;SDS011;58380;48.312;9.246;2023-04-06T12:22:36;6.03;;;3.42;;
1753;SDS011;58380;48.312;9.246;2023-04-06T12:25:04;6.07;;;3.10;;
1753;SDS011;58380;48.312;9.246;2023-04-06T12:27:31;6.93;;;3.22;;
1753;SDS011;58380;48.312;9.246;2023-04-06T12:29:58;6.00;;;3.38;;
1753;SDS011;58380;48.312;9.246;2023-04-06T12:32:23;10.57;;;3.67;;
1753;SDS011;58380;48.312;9.246;2023-04-06T12:34:54;6.22;;;3.17;;
1753;SDS011;58380;48.312;9.246;2023-04-06T12:37:28;7.05;;;3.30;;
1753;SDS011;58380;48.312;9.246;2023-04-06T12:50:53;5.50;;;2.95;;
1753;SDS011;58380;48.312;9.246;2023-04-06T12:57:33;5.72;;;3.20;;
1753;SDS011;58380;48.312;9.246;2023-04-06T13:07:23;5.93;;;3.17;;
1753;SDS011;58380;48.312;9.246;2023-04-06T13:21:23;7.50;;;2.60;;
1753;SDS011;58380;48.312;9.246;2023-04-06T13:23:49;6.80;;;3.13;;
1753;SDS011;58380;48.312;9.246;2023-04-06T13:52:27;5.10;;;2.97;;
1753;SDS011;58380;48.312;9.246;2023-04-06T14:02:36;5.75;;;2.80;;
1753;SDS011;58380;48.312;9.246;2023-04-06T14:23:24;4.72;;;2.40;;
1753;SDS011;58380;48.312;9.246;2023-04-06T14:56:44;6.25;;;2.88;;
1753;SDS011;58380;48.312;9.246;2023-04-06T15:18:58;4.40;;;2.60;;
1753;SDS011;58380;48.312;9.246;2023-04-06T15:50:36;6.93;;;3.05;;
1753;SDS011;58380;48.312;9.246;2023-04-06T15:53:34;6.20;;;2.90;;
1753;SDS011;58380;48.312;9.246;2023-04-06T16:42:13;8.32;;;4.15;;
1753;SDS011;58380;48.312;9.246;2023-04-06T17:04:42;6.80;;;2.85;;
1753;SDS011;58380;48.312;9.246;2023-04-06T17:15:41;14.30;;;5.35;;
1753;SDS011;58380;48.312;9.246;2023-04-06T17:23:10;7.35;;;3.03;;
1753;SDS011;58380;48.312;9.246;2023-04-06T17:26:05;4.97;;;2.45;;
1753;SDS011;58380;48.312;9.246;2023-04-06T17:56:05;5.53;;;2.50;;
1753;SDS011;58380;48.312;9.246;2023-04-06T17:58:30;7.83;;;2.83;;
1753;SDS011;58380;48.312;9.246;2023-04-06T18:00:56;3.42;;;1.65;;
1753;SDS011;58380;48.312;9.246;2023-04-06T18:03:22;12.68;;;3.15;;
1753;SDS011;58380;48.312;9.246;2023-04-06T18:05:47;6.10;;;2.83;;
1753;SDS011;58380;48.312;9.246;2023-04-06T18:08:14;10.15;;;4.65;;
1753;SDS011;58380;48.312;9.246;2023-04-06T18:10:40;4.23;;;2.37;;
1753;SDS011;58380;48.312;9.246;2023-04-06T18:13:09;5.38;;;3.10;;
1753;SDS011;58380;48.312;9.246;2023-04-06T18:15:35;4.40;;;2.17;;
1753;SDS011;58380;48.312;9.246;2023-04-06T18:18:02;7.35;;;2.60;;
1753;SDS011;58380;48.312;9.246;2023-04-06T18:20:28;6.47;;;2.60;;
1753;SDS011;58380;48.312;9.246;2023-04-06T18:22:54;12.63;;;4.47;;
1753;SDS011;58380;48.312;9.246;2023-04-06T18:25:20;12.00;;;4.55;;
1753;SDS011;58380;48.312;9.246;2023-04-06T18:27:45;7.83;;;3.60;;
1753;SDS011;58380;48.312;9.246;2023-04-06T18:30:11;6.60;;;3.13;;
1753;SDS011;58380;48.312;9.246;2023-04-06T18:32:38;7.32;;;3.92;;
1753;SDS011;58380;48.312;9.246;2023-04-06T18:35:04;5.88;;;2.97;;
1753;SDS011;58380;48.312;9.246;2023-04-06T18:37:30;6.25;;;2.70;;
1753;SDS011;58380;48.312;9.246;2023-04-06T18:39:56;5.03;;;2.47;;
1753;SDS011;58380;48.312;9.246;2023-04-06T18:42:21;7.17;;;2.77;;
1753;SDS011;58380;48.312;9.246;2023-04-06T18:44:47;5.97;;;2.70;;
1753;SDS011;58380;48.312;9.246;2023-04-06T18:47:12;7.60;;;2.85;;
1753;SDS011;58380;48.312;9.246;2023-04-06T18:49:38;4.83;;;2.30;;
1753;SDS011;58380;48.312;9.246;2023-04-06T18:52:06;5.83;;;2.83;;
1753;SDS011;58380;48.312;9.246;2023-04-06T18:54:31;5.57;;;2.45;;
1753;SDS011;58380;48.312;9.246;2023-04-06T18:56:57;6.70;;;3.30;;
1753;SDS011;58380;48.312;9.246;2023-04-06T18:59:22;6.67;;;3.10;;
1753;SDS011;58380;48.312;9.246;2023-04-06T19:01:48;6.65;;;3.42;;
1753;SDS011;58380;48.312;9.246;2023-04-06T19:04:17;5.43;;;2.72;;
1753;SDS011;58380;48.312;9.246;2023-04-06T19:06:44;6.65;;;3.25;;
1753;SDS011;58380;48.312;9.246;2023-04-06T19:09:10;6.50;;;3.03;;
1753;SDS011;58380;48.312;9.246;2023-04-06T19:11:36;8.65;;;3.55;;
1753;SDS011;58380;48.312;9.246;2023-04-06T19:14:01;8.48;;;3.97;;
1753;SDS011;58380;48.312;9.246;2023-04-06T19:16:27;13.93;;;5.47;;
1753;SDS011;58380;48.312;9.246;2023-04-06T19:18:53;18.05;;;5.72;;
1753;SDS011;58380;48.312;9.246;2023-04-06T19:23:48;6.03;;;2.60;;
1753;SDS011;58380;48.312;9.246;2023-04-06T19:26:16;6.85;;;2.75;;
1753;SDS011;58380;48.312;9.246;2023-04-06T19:28:44;7.88;;;2.72;;
1753;SDS011;58380;48.312;9.246;2023-04-06T19:31:11;4.30;;;2.47;;
1753;SDS011;58380;48.312;9.246;2023-04-06T19:33:40;5.57;;;2.45;;
1753;SDS011;58380;48.312;9.246;2023-04-06T19:36:07;7.07;;;2.75;;
1753;SDS011;58380;48.312;9.246;2023-04-06T19:38:33;6.50;;;2.75;;
1753;SDS011;58380;48.312;9.246;2023-04-06T19:40:59;7.10;;;3.80;;
1753;SDS011;58380;48.312;9.246;2023-04-06T19:43:26;8.15;;;3.25;;
1753;SDS011;58380;48.312;9.246;2023-04-06T19:45:51;6.83;;;3.10;;
1753;SDS011;58380;48.312;9.246;2023-04-06T19:48:17;7.87;;;3.77;;
1753;SDS011;58380;48.312;9.246;2023-04-06T19:50:43;20.58;;;8.38;;
1753;SDS011;58380;48.312;9.246;2023-04-06T19:53:10;6.60;;;3.20;;
1753;SDS011;58380;48.312;9.246;2023-04-06T19:55:36;8.60;;;4.22;;
1753;SDS011;58380;48.312;9.246;2023-04-06T19:58:02;15.73;;;6.80;;
1753;SDS011;58380;48.312;9.246;2023-04-06T20:02:54;6.45;;;2.58;;
1753;SDS011;58380;48.312;9.246;2023-04-06T20:05:19;3.30;;;1.77;;
1753;SDS011;58380;48.312;9.246;2023-04-06T20:07:44;3.47;;;1.80;;
1753;SDS011;58380;48.312;9.246;2023-04-06T20:10:11;4.93;;;1.83;;
1753;SDS011;58380;48.312;9.246;2023-04-06T20:12:38;3.80;;;1.70;;
1753;SDS011;58380;48.312;9.246;2023-04-06T20:15:06;4.10;;;1.83;;
1753;SDS011;58380;48.312;9.246;2023-04-06T20:17:32;4.65;;;2.05;;
1753;SDS011;58380;48.312;9.246;2023-04-06T20:19:57;4.78;;;1.95;;
1753;SDS011;58380;48.312;9.246;2023-04-06T20:22:23;5.87;;;1.97;;
1753;SDS011;58380;48.312;9.246;2023-04-06T20:24:48;4.57;;;2.13;;
1753;SDS011;58380;48.312;9.246;2023-04-06T20:27:13;6.07;;;2.63;;
1753;SDS011;58380;48.312;9.246;2023-04-06T20:29:41;5.60;;;2.60;;
1753;SDS011;58380;48.312;9.246;2023-04-06T20:32:06;5.00;;;2.38;;
1753;SDS011;58380;48.312;9.246;2023-04-06T20:34:32;3.95;;;2.00;;
1753;SDS011;58380;48.312;9.246;2023-04-06T20:36:58;4.40;;;2.03;;
1753;SDS011;58380;48.312;9.246;2023-04-06T20:39:24;4.10;;;2.27;;
1753;SDS011;58380;48.312;9.246;2023-04-06T20:41:51;6.57;;;2.22;;
1753;SDS011;58380;48.312;9.246;2023-04-06T20:44:17;4.85;;;2.13;;
1753;SDS011;58380;48.312;9.246;2023-04-06T20:46:44;4.25;;;2.20;;
1753;SDS011;58380;48.312;9.246;2023-04-06T20:49:12;4.18;;;2.30;;
1753;SDS011;58380;48.312;9.246;2023-04-06T20:51:37;4.00;;;2.40;;
1753;SDS011;58380;48.312;9.246;2023-04-06T20:54:03;4.43;;;2.83;;
1753;SDS011;58380;48.312;9.246;2023-04-06T20:56:28;7.68;;;2.60;;
1753;SDS011;58380;48.312;9.246;2023-04-06T20:58:55;6.55;;;2.38;;
1753;SDS011;58380;48.312;9.246;2023-04-06T21:01:22;4.80;;;2.40;;
1753;SDS011;58380;48.312;9.246;2023-04-06T21:03:47;7.33;;;2.73;;
1753;SDS011;58380;48.312;9.246;2023-04-06T21:06:13;6.13;;;2.77;;
1753;SDS011;58380;48.312;9.246;2023-04-06T21:08:38;5.07;;;1.98;;
1753;SDS011;58380;48.312;9.246;2023-04-06T21:11:04;5.28;;;2.47;;
1753;SDS011;58380;48.312;9.246;2023-04-06T21:13:30;4.25;;;2.42;;
1753;SDS011;58380;48.312;9.246;2023-04-06T21:15:56;7.63;;;2.63;;
1753;SDS011;58380;48.312;9.246;2023-04-06T21:18:22;6.60;;;3.37;;
1753;SDS011;58380;48.312;9.246;2023-04-06T21:20:47;6.80;;;2.42;;
1753;SDS011;58380;48.312;9.246;2023-04-06T21:23:13;9.40;;;4.30;;
1753;SDS011;58380;48.312;9.246;2023-04-06T21:25:38;9.60;;;4.20;;
1753;SDS011;58380;48.312;9.246;2023-04-06T21:28:04;7.97;;;3.83;;
1753;SDS011;58380;48.312;9.246;2023-04-06T21:30:29;4.77;;;2.77;;
1753;SDS011;58380;48.312;9.246;2023-04-06T21:33:01;11.68;;;5.43;;
1753;SDS011;58380;48.312;9.246;2023-04-06T21:35:28;9.52;;;3.65;;
1753;SDS011;58380;48.312;9.246;2023-04-06T21:37:53;9.63;;;4.90;;
1753;SDS011;58380;48.312;9.246;2023-04-06T21:40:18;11.97;;;5.63;;
1753;SDS011;58380;48.312;9.246;2023-04-06T21:42:44;10.38;;;5.13;;
1753;SDS011;58380;48.312;9.246;2023-04-06T21:45:10;8.85;;;4.88;;
